TimeCDT,TemperatureF,Dew PointF,Humidity,Sea Level PressureIn,VisibilityMPH,Wind Direction,Wind SpeedMPH,Gust SpeedMPH,PrecipitationIn,Events,Conditions,WindDirDegrees,DateUTC
12:53 AM,34.0,30.0,85,30.09,10.0,Calm,Calm,-,N/A,,Clear,0,2012-09-30 05:53:00
1:53 AM,34.0,30.0,85,30.10,10.0,Calm,Calm,-,N/A,,Clear,0,2012-09-30 06:53:00
2:53 AM,32.0,30.0,92,30.08,10.0,Calm,Calm,-,N/A,,Clear,0,2012-09-30 07:53:00
3:53 AM,30.9,28.0,89,30.08,10.0,Calm,Calm,-,N/A,,Clear,0,2012-09-30 08:53:00
4:53 AM,30.9,28.0,89,30.08,10.0,Calm,Calm,-,N/A,,Clear,0,2012-09-30 09:53:00
5:53 AM,30.0,27.0,88,30.08,10.0,Calm,Calm,-,N/A,,Clear,0,2012-09-30 10:53:00
6:53 AM,28.9,27.0,92,30.08,10.0,Calm,Calm,-,N/A,,Clear,0,2012-09-30 11:53:00
7:53 AM,33.1,30.9,92,30.09,10.0,Calm,Calm,-,N/A,,Clear,0,2012-09-30 12:53:00
9:53 AM,55.0,44.1,67,30.07,10.0,Calm,Calm,-,N/A,,Clear,0,2012-09-30 14:53:00
10:53 AM,61.0,43.0,52,30.06,10.0,Calm,Calm,-,N/A,,Clear,0,2012-09-30 15:53:00
11:53 AM,64.9,41.0,42,30.04,10.0,East,5.8,-,N/A,,Clear,80,2012-09-30 16:53:00
12:53 PM,68.0,37.9,33,30.03,10.0,Variable,5.8,-,N/A,,Clear,0,2012-09-30 17:53:00
1:53 PM,69.1,39.0,33,30.01,10.0,SSE,4.6,-,N/A,,Clear,150,2012-09-30 18:53:00
2:53 PM,71.1,41.0,34,29.98,10.0,Calm,Calm,-,N/A,,Clear,0,2012-09-30 19:53:00
3:53 PM,72.0,39.0,30,29.97,10.0,Calm,Calm,-,N/A,,Clear,0,2012-09-30 20:53:00
4:53 PM,71.1,37.9,30,29.96,10.0,Calm,Calm,-,N/A,,Clear,0,2012-09-30 21:53:00
5:53 PM,63.0,43.0,48,29.96,10.0,Calm,Calm,-,N/A,,Clear,0,2012-09-30 22:53:00
6:53 PM,55.9,44.1,64,29.96,10.0,Calm,Calm,-,N/A,,Clear,0,2012-09-30 23:53:00
7:53 PM,50.0,43.0,77,29.96,10.0,Calm,Calm,-,N/A,,Clear,0,2012-10-01 00:53:00
8:53 PM,46.0,42.1,86,29.95,10.0,Calm,Calm,-,N/A,,Clear,0,2012-10-01 01:53:00
9:53 PM,45.0,41.0,86,29.95,10.0,Calm,Calm,-,N/A,,Clear,0,2012-10-01 02:53:00
11:53 PM,41.0,37.9,89,29.91,10.0,Calm,Calm,-,N/A,,Clear,0,2012-10-01 04:53:00